Oxbow, OR

8:33 AM PDT on May 24, 2015 (GMT -0700)
RAWS | | Change Station
CLOSE
Current Station
Personal Weather Station
Location: Oxbow, OR
Elevation: 4375 ft
Nearby Weather Stations

Elev 4375 ft 45.10 °N, 116.74 °W | Updated 47 minutes ago

Clear
Clear
57 °F
Feels Like 57 °F
N
4
Wind Variable Wind from NE
Gusts 12.0 mph

Today
High -- | Low -- °F
--% Chance of Precip.
Yesterday
High -- | Low -- °F
Precip. -- in
5:10 AM 8:19 PM
Waxing Crescent, 40% visible
Pressure 29.92 in
Visibility 10.0 miles
Clouds Clear
Dew Point 44 °F
Humidity 62%
Rainfall in
Snow Depth Not available.
UV 3 out of 12
Pollen 8.60 out of 12
Air Quality Not available.
Flu Activity No Activity
METAR KMYL 241451Z AUTO 33006KT 10SM CLR 12/04 A3000 RMK AO2 SLP132 T01170044 58002

More Conditions Fewer Conditions

Pressure 29.92 in
Visibility 10.0 miles
Clouds Clear
Dew Point 44 °F
Humidity 62%
Rainfall in
Snow Depth Not available.
UV 3 out of 12
Pollen 8.60 out of 12
Air Quality Not available.
Flu Activity No Activity
METAR KMYL 241451Z AUTO 33006KT 10SM CLR 12/04 A3000 RMK AO2 SLP132 T01170044 58002

More Conditions Fewer Conditions

10-Day Weather Forecast

Almanac

Astronomy

May. 24, 2015 Rise Set
Actual Time
Civil Twilight
Nautical Twilight
Astronomical Twilight
Moon
Length of Visible Light
Length of Day
Tomorrow will be .
, % of the Moon is Illuminated

Today's Extremes

State Highs State Lows

Community

WunderPhotos

Upload Photos

1,823,770 photos uploaded!

WunderBlogs® & News

Nearby

Air Quality

  Air Quality AQ Index Pollutant
Not available.

Snow Depth

Station Depth Elevation

Earthquake Activity

City Distance Mag. Time & Date
Minimum magnitude displayed is 2.5.

Coastal Water Temperatures

Place Temperature

Stations

Nearby Weather Stations

Station Location Temp. Windchill Dew Point Humidity Wind Precip. Elev Updated Type